sensor_id;sensor_type;location;lat;lon;timestamp;P1;durP1;ratioP1;P2;durP2;ratioP2
17614;SDS011;8926;49.720;6.576;2023-03-01T00:01:57;3.27;;;2.97;;
17614;SDS011;8926;49.720;6.576;2023-03-01T00:04:23;3.10;;;2.90;;
17614;SDS011;8926;49.720;6.576;2023-03-01T00:06:48;3.93;;;3.63;;
17614;SDS011;8926;49.720;6.576;2023-03-01T00:09:14;4.00;;;3.70;;
17614;SDS011;8926;49.720;6.576;2023-03-01T00:11:40;3.50;;;3.30;;
17614;SDS011;8926;49.720;6.576;2023-03-01T00:14:05;4.13;;;3.73;;
17614;SDS011;8926;49.720;6.576;2023-03-01T00:16:32;3.40;;;3.10;;
17614;SDS011;8926;49.720;6.576;2023-03-01T00:19:04;4.07;;;3.67;;
17614;SDS011;8926;49.720;6.576;2023-03-01T00:21:30;4.00;;;3.70;;
17614;SDS011;8926;49.720;6.576;2023-03-01T00:23:56;4.40;;;4.10;;
17614;SDS011;8926;49.720;6.576;2023-03-01T00:26:22;4.07;;;3.77;;
17614;SDS011;8926;49.720;6.576;2023-03-01T00:28:49;3.97;;;3.73;;
17614;SDS011;8926;49.720;6.576;2023-03-01T00:31:16;4.30;;;4.00;;
17614;SDS011;8926;49.720;6.576;2023-03-01T00:33:47;4.53;;;4.10;;
17614;SDS011;8926;49.720;6.576;2023-03-01T00:36:13;4.53;;;4.23;;
17614;SDS011;8926;49.720;6.576;2023-03-01T00:38:41;3.77;;;3.47;;
17614;SDS011;8926;49.720;6.576;2023-03-01T00:41:09;4.70;;;4.30;;
17614;SDS011;8926;49.720;6.576;2023-03-01T00:43:36;4.53;;;4.13;;
17614;SDS011;8926;49.720;6.576;2023-03-01T00:46:06;4.63;;;4.23;;
17614;SDS011;8926;49.720;6.576;2023-03-01T00:48:34;4.30;;;4.00;;
17614;SDS011;8926;49.720;6.576;2023-03-01T00:51:42;4.23;;;3.93;;
17614;SDS011;8926;49.720;6.576;2023-03-01T00:53:51;4.20;;;3.90;;
17614;SDS011;8926;49.720;6.576;2023-03-01T00:56:17;3.90;;;3.60;;
17614;SDS011;8926;49.720;6.576;2023-03-01T00:58:43;4.40;;;4.00;;
17614;SDS011;8926;49.720;6.576;2023-03-01T01:01:13;4.87;;;4.57;;
17614;SDS011;8926;49.720;6.576;2023-03-01T01:03:47;4.33;;;4.03;;
17614;SDS011;8926;49.720;6.576;2023-03-01T01:06:21;4.10;;;3.73;;
17614;SDS011;8926;49.720;6.576;2023-03-01T01:08:58;3.80;;;3.60;;
17614;SDS011;8926;49.720;6.576;2023-03-01T01:11:25;4.27;;;3.97;;
17614;SDS011;8926;49.720;6.576;2023-03-01T01:13:52;4.60;;;4.20;;
17614;SDS011;8926;49.720;6.576;2023-03-01T01:16:18;4.33;;;3.97;;
17614;SDS011;8926;49.720;6.576;2023-03-01T01:18:45;4.33;;;4.00;;
17614;SDS011;8926;49.720;6.576;2023-03-01T01:21:11;4.57;;;4.17;;
17614;SDS011;8926;49.720;6.576;2023-03-01T01:23:39;4.53;;;4.10;;
17614;SDS011;8926;49.720;6.576;2023-03-01T01:26:27;4.60;;;4.30;;
17614;SDS011;8926;49.720;6.576;2023-03-01T01:28:52;4.30;;;4.00;;
17614;SDS011;8926;49.720;6.576;2023-03-01T01:31:18;4.40;;;4.00;;
17614;SDS011;8926;49.720;6.576;2023-03-01T01:33:44;4.40;;;4.00;;
17614;SDS011;8926;49.720;6.576;2023-03-01T01:36:10;3.63;;;3.33;;
17614;SDS011;8926;49.720;6.576;2023-03-01T01:38:37;4.10;;;3.80;;
17614;SDS011;8926;49.720;6.576;2023-03-01T01:41:03;4.40;;;4.00;;
17614;SDS011;8926;49.720;6.576;2023-03-01T01:43:30;3.97;;;3.63;;
17614;SDS011;8926;49.720;6.576;2023-03-01T01:46:02;4.67;;;4.37;;
17614;SDS011;8926;49.720;6.576;2023-03-01T01:48:36;4.63;;;4.23;;
17614;SDS011;8926;49.720;6.576;2023-03-01T01:51:06;4.57;;;4.27;;
17614;SDS011;8926;49.720;6.576;2023-03-01T01:53:36;4.97;;;4.67;;
17614;SDS011;8926;49.720;6.576;2023-03-01T01:56:02;4.43;;;4.13;;
17614;SDS011;8926;49.720;6.576;2023-03-01T01:58:31;4.07;;;3.77;;
17614;SDS011;8926;49.720;6.576;2023-03-01T02:00:56;4.30;;;4.00;;
17614;SDS011;8926;49.720;6.576;2023-03-01T02:03:26;4.90;;;4.40;;
17614;SDS011;8926;49.720;6.576;2023-03-01T02:05:59;4.23;;;3.93;;
17614;SDS011;8926;49.720;6.576;2023-03-01T02:08:30;4.70;;;4.30;;
17614;SDS011;8926;49.720;6.576;2023-03-01T02:10:58;4.37;;;4.07;;
17614;SDS011;8926;49.720;6.576;2023-03-01T02:13:24;4.37;;;4.07;;
17614;SDS011;8926;49.720;6.576;2023-03-01T02:15:50;5.33;;;4.83;;
17614;SDS011;8926;49.720;6.576;2023-03-01T02:18:17;5.10;;;4.67;;
17614;SDS011;8926;49.720;6.576;2023-03-01T02:23:44;4.90;;;4.50;;
17614;SDS011;8926;49.720;6.576;2023-03-01T02:28:44;4.70;;;4.30;;
17614;SDS011;8926;49.720;6.576;2023-03-01T02:31:10;4.13;;;3.83;;
17614;SDS011;8926;49.720;6.576;2023-03-01T02:33:58;4.80;;;4.40;;
17614;SDS011;8926;49.720;6.576;2023-03-01T02:36:25;5.10;;;4.60;;
17614;SDS011;8926;49.720;6.576;2023-03-01T02:38:56;4.37;;;4.07;;
17614;SDS011;8926;49.720;6.576;2023-03-01T02:41:24;4.33;;;4.03;;
17614;SDS011;8926;49.720;6.576;2023-03-01T02:43:53;4.70;;;4.40;;
17614;SDS011;8926;49.720;6.576;2023-03-01T02:46:20;5.00;;;4.60;;
17614;SDS011;8926;49.720;6.576;2023-03-01T02:48:48;4.47;;;4.07;;
17614;SDS011;8926;49.720;6.576;2023-03-01T02:51:25;5.10;;;4.70;;
17614;SDS011;8926;49.720;6.576;2023-03-01T02:56:58;5.20;;;4.80;;
17614;SDS011;8926;49.720;6.576;2023-03-01T02:59:26;5.43;;;4.93;;
17614;SDS011;8926;49.720;6.576;2023-03-01T03:01:55;7.20;;;6.50;;
17614;SDS011;8926;49.720;6.576;2023-03-01T03:04:20;7.30;;;6.63;;
17614;SDS011;8926;49.720;6.576;2023-03-01T03:06:46;6.87;;;6.27;;
17614;SDS011;8926;49.720;6.576;2023-03-01T03:09:14;6.70;;;6.10;;
17614;SDS011;8926;49.720;6.576;2023-03-01T03:11:40;5.90;;;5.40;;
17614;SDS011;8926;49.720;6.576;2023-03-01T03:14:07;6.47;;;5.87;;
17614;SDS011;8926;49.720;6.576;2023-03-01T03:16:39;6.40;;;5.80;;
17614;SDS011;8926;49.720;6.576;2023-03-01T03:19:05;7.27;;;6.67;;
17614;SDS011;8926;49.720;6.576;2023-03-01T03:21:31;7.13;;;6.47;;
17614;SDS011;8926;49.720;6.576;2023-03-01T03:23:57;6.20;;;5.70;;
17614;SDS011;8926;49.720;6.576;2023-03-01T03:26:23;6.97;;;6.37;;
17614;SDS011;8926;49.720;6.576;2023-03-01T03:28:48;6.47;;;5.97;;
17614;SDS011;8926;49.720;6.576;2023-03-01T03:31:14;5.93;;;5.50;;
17614;SDS011;8926;49.720;6.576;2023-03-01T03:33:39;6.20;;;5.77;;
17614;SDS011;8926;49.720;6.576;2023-03-01T03:36:05;6.77;;;6.17;;
17614;SDS011;8926;49.720;6.576;2023-03-01T03:38:30;6.07;;;5.57;;
17614;SDS011;8926;49.720;6.576;2023-03-01T03:41:03;6.30;;;5.80;;
17614;SDS011;8926;49.720;6.576;2023-03-01T03:43:31;7.53;;;6.43;;
17614;SDS011;8926;49.720;6.576;2023-03-01T03:45:57;6.73;;;6.23;;
17614;SDS011;8926;49.720;6.576;2023-03-01T03:48:24;6.37;;;5.87;;
17614;SDS011;8926;49.720;6.576;2023-03-01T03:50:51;6.23;;;5.70;;
17614;SDS011;8926;49.720;6.576;2023-03-01T03:53:18;7.07;;;6.47;;
17614;SDS011;8926;49.720;6.576;2023-03-01T03:55:43;6.03;;;5.53;;
17614;SDS011;8926;49.720;6.576;2023-03-01T03:58:09;7.97;;;7.27;;
17614;SDS011;8926;49.720;6.576;2023-03-01T04:00:39;9.13;;;8.27;;
17614;SDS011;8926;49.720;6.576;2023-03-01T04:03:06;6.83;;;6.30;;
17614;SDS011;8926;49.720;6.576;2023-03-01T04:05:33;8.50;;;7.53;;
17614;SDS011;8926;49.720;6.576;2023-03-01T04:07:59;9.67;;;8.70;;
17614;SDS011;8926;49.720;6.576;2023-03-01T04:10:31;9.17;;;8.37;;
17614;SDS011;8926;49.720;6.576;2023-03-01T04:13:01;7.17;;;6.67;;
17614;SDS011;8926;49.720;6.576;2023-03-01T04:15:26;6.00;;;5.50;;
17614;SDS011;8926;49.720;6.576;2023-03-01T04:17:52;6.93;;;6.37;;
17614;SDS011;8926;49.720;6.576;2023-03-01T04:20:23;6.73;;;6.13;;
17614;SDS011;8926;49.720;6.576;2023-03-01T04:22:56;6.47;;;5.97;;
17614;SDS011;8926;49.720;6.576;2023-03-01T04:25:23;7.03;;;6.47;;
17614;SDS011;8926;49.720;6.576;2023-03-01T04:27:49;6.43;;;5.83;;
17614;SDS011;8926;49.720;6.576;2023-03-01T04:30:14;5.97;;;5.47;;
17614;SDS011;8926;49.720;6.576;2023-03-01T04:32:40;6.43;;;5.93;;
17614;SDS011;8926;49.720;6.576;2023-03-01T04:35:05;5.40;;;5.00;;
17614;SDS011;8926;49.720;6.576;2023-03-01T04:37:31;6.23;;;5.73;;
17614;SDS011;8926;49.720;6.576;2023-03-01T04:39:56;6.57;;;5.97;;
17614;SDS011;8926;49.720;6.576;2023-03-01T04:42:22;8.00;;;7.30;;
17614;SDS011;8926;49.720;6.576;2023-03-01T04:44:48;7.37;;;6.67;;
17614;SDS011;8926;49.720;6.576;2023-03-01T04:47:16;6.40;;;5.90;;
17614;SDS011;8926;49.720;6.576;2023-03-01T04:49:41;6.70;;;6.17;;
17614;SDS011;8926;49.720;6.576;2023-03-01T04:52:07;6.70;;;6.20;;
17614;SDS011;8926;49.720;6.576;2023-03-01T04:54:32;7.03;;;6.43;;
17614;SDS011;8926;49.720;6.576;2023-03-01T04:56:59;6.43;;;5.83;;
17614;SDS011;8926;49.720;6.576;2023-03-01T04:59:24;5.83;;;5.33;;
17614;SDS011;8926;49.720;6.576;2023-03-01T05:01:54;5.97;;;5.47;;
17614;SDS011;8926;49.720;6.576;2023-03-01T05:04:23;6.90;;;6.37;;
17614;SDS011;8926;49.720;6.576;2023-03-01T05:06:49;7.93;;;7.20;;
17614;SDS011;8926;49.720;6.576;2023-03-01T05:09:14;7.67;;;7.07;;
17614;SDS011;8926;49.720;6.576;2023-03-01T05:11:39;7.13;;;6.50;;
17614;SDS011;8926;49.720;6.576;2023-03-01T05:14:05;6.50;;;5.90;;
17614;SDS011;8926;49.720;6.576;2023-03-01T05:16:32;6.97;;;6.37;;
17614;SDS011;8926;49.720;6.576;2023-03-01T05:18:58;7.93;;;7.33;;
17614;SDS011;8926;49.720;6.576;2023-03-01T05:21:24;7.40;;;6.80;;
17614;SDS011;8926;49.720;6.576;2023-03-01T05:23:50;6.90;;;6.30;;
17614;SDS011;8926;49.720;6.576;2023-03-01T05:26:16;7.00;;;6.40;;
17614;SDS011;8926;49.720;6.576;2023-03-01T05:28:43;7.57;;;6.97;;
17614;SDS011;8926;49.720;6.576;2023-03-01T05:31:09;7.70;;;7.10;;
17614;SDS011;8926;49.720;6.576;2023-03-01T05:33:38;7.20;;;6.70;;
17614;SDS011;8926;49.720;6.576;2023-03-01T05:36:07;7.90;;;7.20;;
17614;SDS011;8926;49.720;6.576;2023-03-01T05:38:34;7.40;;;6.80;;
17614;SDS011;8926;49.720;6.576;2023-03-01T05:41:00;7.10;;;6.50;;
17614;SDS011;8926;49.720;6.576;2023-03-01T05:43:25;8.03;;;7.43;;
17614;SDS011;8926;49.720;6.576;2023-03-01T05:45:50;10.67;;;9.70;;
17614;SDS011;8926;49.720;6.576;2023-03-01T05:48:16;8.70;;;8.00;;
17614;SDS011;8926;49.720;6.576;2023-03-01T05:50:44;8.57;;;7.87;;
17614;SDS011;8926;49.720;6.576;2023-03-01T05:53:17;10.03;;;9.23;;
17614;SDS011;8926;49.720;6.576;2023-03-01T05:55:45;8.43;;;7.73;;
17614;SDS011;8926;49.720;6.576;2023-03-01T05:58:13;8.77;;;7.97;;
17614;SDS011;8926;49.720;6.576;2023-03-01T06:00:40;8.70;;;8.00;;
17614;SDS011;8926;49.720;6.576;2023-03-01T06:03:06;8.53;;;7.83;;
17614;SDS011;8926;49.720;6.576;2023-03-01T06:05:33;8.83;;;8.13;;
17614;SDS011;8926;49.720;6.576;2023-03-01T06:07:59;9.33;;;8.57;;
17614;SDS011;8926;49.720;6.576;2023-03-01T06:10:25;9.47;;;8.67;;
17614;SDS011;8926;49.720;6.576;2023-03-01T06:12:50;9.90;;;9.10;;
17614;SDS011;8926;49.720;6.576;2023-03-01T06:15:16;10.40;;;9.20;;
17614;SDS011;8926;49.720;6.576;2023-03-01T06:17:43;10.43;;;9.53;;
17614;SDS011;8926;49.720;6.576;2023-03-01T06:20:13;10.03;;;9.10;;
17614;SDS011;8926;49.720;6.576;2023-03-01T06:22:40;9.80;;;8.40;;
17614;SDS011;8926;49.720;6.576;2023-03-01T06:25:07;9.27;;;8.37;;
17614;SDS011;8926;49.720;6.576;2023-03-01T06:27:33;9.43;;;8.63;;
17614;SDS011;8926;49.720;6.576;2023-03-01T06:29:59;10.60;;;9.70;;
17614;SDS011;8926;49.720;6.576;2023-03-01T06:32:24;10.73;;;9.70;;
17614;SDS011;8926;49.720;6.576;2023-03-01T06:34:49;10.77;;;9.77;;
17614;SDS011;8926;49.720;6.576;2023-03-01T06:37:15;9.67;;;8.87;;
17614;SDS011;8926;49.720;6.576;2023-03-01T06:39:40;10.73;;;9.80;;
17614;SDS011;8926;49.720;6.576;2023-03-01T06:42:07;12.83;;;10.33;;
17614;SDS011;8926;49.720;6.576;2023-03-01T06:44:33;10.93;;;9.93;;
17614;SDS011;8926;49.720;6.576;2023-03-01T06:46:58;10.90;;;9.97;;
17614;SDS011;8926;49.720;6.576;2023-03-01T06:49:27;10.47;;;9.43;;
17614;SDS011;8926;49.720;6.576;2023-03-01T06:51:52;10.37;;;9.57;;
17614;SDS011;8926;49.720;6.576;2023-03-01T06:54:18;9.90;;;9.07;;
17614;SDS011;8926;49.720;6.576;2023-03-01T06:56:46;10.00;;;9.20;;
17614;SDS011;8926;49.720;6.576;2023-03-01T06:59:11;10.70;;;9.80;;
17614;SDS011;8926;49.720;6.576;2023-03-01T07:01:36;10.97;;;10.03;;
17614;SDS011;8926;49.720;6.576;2023-03-01T07:04:02;10.67;;;9.67;;
17614;SDS011;8926;49.720;6.576;2023-03-01T07:06:27;21.03;;;16.40;;
17614;SDS011;8926;49.720;6.576;2023-03-01T07:08:52;15.10;;;13.70;;
17614;SDS011;8926;49.720;6.576;2023-03-01T07:11:18;13.30;;;11.97;;
17614;SDS011;8926;49.720;6.576;2023-03-01T07:13:43;12.80;;;11.60;;
17614;SDS011;8926;49.720;6.576;2023-03-01T07:16:08;13.13;;;11.93;;
17614;SDS011;8926;49.720;6.576;2023-03-01T07:18:34;11.67;;;10.57;;
17614;SDS011;8926;49.720;6.576;2023-03-01T07:21:03;12.60;;;11.47;;
17614;SDS011;8926;49.720;6.576;2023-03-01T07:23:30;12.87;;;11.77;;
17614;SDS011;8926;49.720;6.576;2023-03-01T07:25:56;12.07;;;11.00;;
17614;SDS011;8926;49.720;6.576;2023-03-01T07:28:24;12.23;;;11.13;;
17614;SDS011;8926;49.720;6.576;2023-03-01T07:30:49;11.83;;;10.77;;
17614;SDS011;8926;49.720;6.576;2023-03-01T07:33:17;11.90;;;10.80;;
17614;SDS011;8926;49.720;6.576;2023-03-01T07:35:42;12.10;;;11.00;;
17614;SDS011;8926;49.720;6.576;2023-03-01T07:38:08;11.13;;;10.13;;
17614;SDS011;8926;49.720;6.576;2023-03-01T07:40:33;12.37;;;11.17;;
17614;SDS011;8926;49.720;6.576;2023-03-01T07:42:59;13.50;;;12.30;;
17614;SDS011;8926;49.720;6.576;2023-03-01T07:45:24;16.03;;;13.73;;
17614;SDS011;8926;49.720;6.576;2023-03-01T07:47:50;13.93;;;12.53;;
17614;SDS011;8926;49.720;6.576;2023-03-01T07:50:17;13.40;;;12.10;;
17614;SDS011;8926;49.720;6.576;2023-03-01T07:52:44;13.40;;;12.00;;
17614;SDS011;8926;49.720;6.576;2023-03-01T07:55:10;13.40;;;12.20;;
17614;SDS011;8926;49.720;6.576;2023-03-01T07:57:36;16.07;;;13.50;;
17614;SDS011;8926;49.720;6.576;2023-03-01T08:00:01;15.03;;;13.03;;
17614;SDS011;8926;49.720;6.576;2023-03-01T08:02:26;13.40;;;12.20;;
17614;SDS011;8926;49.720;6.576;2023-03-01T08:04:52;13.67;;;12.43;;
17614;SDS011;8926;49.720;6.576;2023-03-01T08:07:20;15.07;;;13.67;;
17614;SDS011;8926;49.720;6.576;2023-03-01T08:09:45;12.87;;;11.77;;
17614;SDS011;8926;49.720;6.576;2023-03-01T08:12:10;16.60;;;14.90;;
17614;SDS011;8926;49.720;6.576;2023-03-01T08:14:36;14.40;;;13.10;;
17614;SDS011;8926;49.720;6.576;2023-03-01T08:17:01;14.07;;;12.70;;
17614;SDS011;8926;49.720;6.576;2023-03-01T08:19:28;15.50;;;13.63;;
17614;SDS011;8926;49.720;6.576;2023-03-01T08:21:53;13.37;;;12.17;;
17614;SDS011;8926;49.720;6.576;2023-03-01T08:24:19;13.00;;;11.80;;
17614;SDS011;8926;49.720;6.576;2023-03-01T08:26:44;12.87;;;11.63;;
17614;SDS011;8926;49.720;6.576;2023-03-01T08:29:09;12.57;;;11.40;;
17614;SDS011;8926;49.720;6.576;2023-03-01T08:31:36;14.07;;;12.33;;
17614;SDS011;8926;49.720;6.576;2023-03-01T08:34:05;14.47;;;13.07;;
17614;SDS011;8926;49.720;6.576;2023-03-01T08:36:33;15.80;;;14.07;;
17614;SDS011;8926;49.720;6.576;2023-03-01T08:39:02;13.87;;;12.53;;
17614;SDS011;8926;49.720;6.576;2023-03-01T08:41:29;14.03;;;12.10;;
17614;SDS011;8926;49.720;6.576;2023-03-01T08:43:54;13.00;;;12.00;;
17614;SDS011;8926;49.720;6.576;2023-03-01T08:46:24;20.03;;;16.67;;
17614;SDS011;8926;49.720;6.576;2023-03-01T08:49:03;24.97;;;18.97;;
17614;SDS011;8926;49.720;6.576;2023-03-01T08:51:29;22.13;;;17.83;;
17614;SDS011;8926;49.720;6.576;2023-03-01T08:53:56;15.53;;;14.07;;
17614;SDS011;8926;49.720;6.576;2023-03-01T08:56:22;14.43;;;13.13;;
17614;SDS011;8926;49.720;6.576;2023-03-01T08:58:47;14.17;;;12.77;;
17614;SDS011;8926;49.720;6.576;2023-03-01T09:01:15;14.37;;;13.00;;
17614;SDS011;8926;49.720;6.576;2023-03-01T09:03:42;15.83;;;14.23;;
17614;SDS011;8926;49.720;6.576;2023-03-01T09:06:07;15.20;;;13.70;;
17614;SDS011;8926;49.720;6.576;2023-03-01T09:08:36;13.63;;;12.33;;
17614;SDS011;8926;49.720;6.576;2023-03-01T09:11:04;14.07;;;12.87;;
17614;SDS011;8926;49.720;6.576;2023-03-01T09:13:31;20.73;;;14.67;;
17614;SDS011;8926;49.720;6.576;2023-03-01T09:15:57;15.87;;;14.17;;
17614;SDS011;8926;49.720;6.576;2023-03-01T09:18:23;15.00;;;13.40;;
17614;SDS011;8926;49.720;6.576;2023-03-01T09:20:48;14.97;;;13.57;;
17614;SDS011;8926;49.720;6.576;2023-03-01T09:23:14;15.17;;;13.83;;
17614;SDS011;8926;49.720;6.576;2023-03-01T09:25:39;15.40;;;13.90;;
17614;SDS011;8926;49.720;6.576;2023-03-01T09:28:04;12.97;;;11.83;;
17614;SDS011;8926;49.720;6.576;2023-03-01T09:30:29;14.47;;;13.03;;
17614;SDS011;8926;49.720;6.576;2023-03-01T09:32:56;12.80;;;11.70;;
17614;SDS011;8926;49.720;6.576;2023-03-01T09:35:21;12.90;;;11.80;;
17614;SDS011;8926;49.720;6.576;2023-03-01T09:37:47;13.60;;;12.23;;
17614;SDS011;8926;49.720;6.576;2023-03-01T09:40:15;12.53;;;11.40;;
17614;SDS011;8926;49.720;6.576;2023-03-01T09:42:47;13.93;;;12.63;;
17614;SDS011;8926;49.720;6.576;2023-03-01T09:45:26;12.83;;;11.70;;
17614;SDS011;8926;49.720;6.576;2023-03-01T09:47:58;12.83;;;11.63;;
17614;SDS011;8926;49.720;6.576;2023-03-01T09:50:31;12.00;;;10.90;;
17614;SDS011;8926;49.720;6.576;2023-03-01T09:58:25;13.13;;;11.93;;
17614;SDS011;8926;49.720;6.576;2023-03-01T10:00:49;12.67;;;11.67;;
17614;SDS011;8926;49.720;6.576;2023-03-01T10:11:24;13.00;;;11.87;;
17614;SDS011;8926;49.720;6.576;2023-03-01T10:16:51;12.43;;;11.30;;
17614;SDS011;8926;49.720;6.576;2023-03-01T10:22:07;12.40;;;11.30;;
17614;SDS011;8926;49.720;6.576;2023-03-01T10:24:57;13.97;;;12.53;;
17614;SDS011;8926;49.720;6.576;2023-03-01T10:27:25;13.27;;;12.07;;
17614;SDS011;8926;49.720;6.576;2023-03-01T10:32:56;13.73;;;12.50;;
17614;SDS011;8926;49.720;6.576;2023-03-01T10:35:26;13.07;;;11.80;;
17614;SDS011;8926;49.720;6.576;2023-03-01T10:37:57;13.90;;;12.70;;
17614;SDS011;8926;49.720;6.576;2023-03-01T10:40:27;13.37;;;12.20;;
17614;SDS011;8926;49.720;6.576;2023-03-01T10:42:52;13.07;;;11.77;;
17614;SDS011;8926;49.720;6.576;2023-03-01T10:45:37;12.80;;;11.63;;
17614;SDS011;8926;49.720;6.576;2023-03-01T10:51:05;14.77;;;13.47;;
17614;SDS011;8926;49.720;6.576;2023-03-01T10:53:38;12.83;;;11.60;;
17614;SDS011;8926;49.720;6.576;2023-03-01T10:56:08;13.03;;;11.93;;
17614;SDS011;8926;49.720;6.576;2023-03-01T10:58:39;13.20;;;12.07;;
17614;SDS011;8926;49.720;6.576;2023-03-01T11:01:09;13.20;;;11.77;;
17614;SDS011;8926;49.720;6.576;2023-03-01T11:06:30;15.23;;;13.30;;
17614;SDS011;8926;49.720;6.576;2023-03-01T11:08:55;13.37;;;12.33;;
17614;SDS011;8926;49.720;6.576;2023-03-01T11:11:22;13.93;;;12.77;;
17614;SDS011;8926;49.720;6.576;2023-03-01T11:16:17;12.77;;;11.77;;
17614;SDS011;8926;49.720;6.576;2023-03-01T11:22:18;16.27;;;14.60;;
17614;SDS011;8926;49.720;6.576;2023-03-01T11:29:55;14.70;;;13.23;;
17614;SDS011;8926;49.720;6.576;2023-03-01T11:32:26;13.60;;;12.50;;
17614;SDS011;8926;49.720;6.576;2023-03-01T11:34:57;13.17;;;11.87;;
17614;SDS011;8926;49.720;6.576;2023-03-01T11:37:41;12.60;;;11.60;;
17614;SDS011;8926;49.720;6.576;2023-03-01T11:40:31;14.77;;;13.50;;
17614;SDS011;8926;49.720;6.576;2023-03-01T11:43:13;13.70;;;12.40;;
17614;SDS011;8926;49.720;6.576;2023-03-01T11:45:45;14.37;;;13.17;;
17614;SDS011;8926;49.720;6.576;2023-03-01T11:51:05;12.50;;;11.50;;
17614;SDS011;8926;49.720;6.576;2023-03-01T11:59:35;12.30;;;11.30;;
17614;SDS011;8926;49.720;6.576;2023-03-01T12:18:42;14.70;;;13.30;;
17614;SDS011;8926;49.720;6.576;2023-03-01T12:21:30;12.20;;;11.10;;
17614;SDS011;8926;49.720;6.576;2023-03-01T12:30:06;13.50;;;12.37;;
17614;SDS011;8926;49.720;6.576;2023-03-01T12:32:40;15.43;;;14.13;;
17614;SDS011;8926;49.720;6.576;2023-03-01T12:46:22;12.77;;;11.73;;
17614;SDS011;8926;49.720;6.576;2023-03-01T12:49:01;12.47;;;11.47;;
17614;SDS011;8926;49.720;6.576;2023-03-01T12:51:33;13.70;;;12.47;;
17614;SDS011;8926;49.720;6.576;2023-03-01T12:54:01;13.47;;;12.13;;
17614;SDS011;8926;49.720;6.576;2023-03-01T12:56:59;13.20;;;12.10;;
17614;SDS011;8926;49.720;6.576;2023-03-01T12:59:48;14.20;;;12.93;;
17614;SDS011;8926;49.720;6.576;2023-03-01T13:08:19;13.20;;;11.90;;
17614;SDS011;8926;49.720;6.576;2023-03-01T13:10:50;14.00;;;12.70;;
17614;SDS011;8926;49.720;6.576;2023-03-01T13:13:22;14.87;;;13.37;;
17614;SDS011;8926;49.720;6.576;2023-03-01T13:15:52;14.57;;;13.20;;
17614;SDS011;8926;49.720;6.576;2023-03-01T13:20:45;11.50;;;10.50;;
17614;SDS011;8926;49.720;6.576;2023-03-01T13:26:03;11.70;;;10.77;;
17614;SDS011;8926;49.720;6.576;2023-03-01T13:33:50;12.93;;;11.73;;
17614;SDS011;8926;49.720;6.576;2023-03-01T13:37:02;11.87;;;10.83;;
17614;SDS011;8926;49.720;6.576;2023-03-01T13:41:53;12.57;;;11.57;;
17614;SDS011;8926;49.720;6.576;2023-03-01T13:44:32;12.93;;;11.93;;
17614;SDS011;8926;49.720;6.576;2023-03-01T13:47:07;13.17;;;12.07;;
17614;SDS011;8926;49.720;6.576;2023-03-01T13:49:47;13.50;;;12.20;;
17614;SDS011;8926;49.720;6.576;2023-03-01T13:55:13;14.13;;;12.73;;
17614;SDS011;8926;49.720;6.576;2023-03-01T13:57:50;11.27;;;10.37;;
17614;SDS011;8926;49.720;6.576;2023-03-01T14:05:31;12.87;;;11.77;;
17614;SDS011;8926;49.720;6.576;2023-03-01T14:07:57;13.23;;;12.00;;
17614;SDS011;8926;49.720;6.576;2023-03-01T14:10:22;14.57;;;13.17;;
17614;SDS011;8926;49.720;6.576;2023-03-01T14:20:49;12.77;;;11.57;;
17614;SDS011;8926;49.720;6.576;2023-03-01T14:23:18;12.23;;;11.17;;
17614;SDS011;8926;49.720;6.576;2023-03-01T14:25:47;14.43;;;12.97;;
17614;SDS011;8926;49.720;6.576;2023-03-01T14:28:18;14.03;;;12.73;;
17614;SDS011;8926;49.720;6.576;2023-03-01T14:30:47;13.63;;;12.43;;
17614;SDS011;8926;49.720;6.576;2023-03-01T14:33:18;13.37;;;12.07;;
17614;SDS011;8926;49.720;6.576;2023-03-01T14:35:56;11.20;;;10.10;;
17614;SDS011;8926;49.720;6.576;2023-03-01T14:38:29;13.47;;;12.30;;
17614;SDS011;8926;49.720;6.576;2023-03-01T14:40:56;13.63;;;12.43;;
17614;SDS011;8926;49.720;6.576;2023-03-01T14:43:24;14.90;;;13.50;;
17614;SDS011;8926;49.720;6.576;2023-03-01T14:45:51;11.80;;;10.80;;
17614;SDS011;8926;49.720;6.576;2023-03-01T14:48:16;15.90;;;14.33;;
17614;SDS011;8926;49.720;6.576;2023-03-01T14:50:43;13.90;;;12.70;;
17614;SDS011;8926;49.720;6.576;2023-03-01T14:53:20;28.73;;;22.90;;
17614;SDS011;8926;49.720;6.576;2023-03-01T14:56:12;16.43;;;14.73;;
17614;SDS011;8926;49.720;6.576;2023-03-01T14:58:42;16.70;;;15.00;;
17614;SDS011;8926;49.720;6.576;2023-03-01T15:01:10;15.40;;;14.03;;
17614;SDS011;8926;49.720;6.576;2023-03-01T15:03:44;17.53;;;15.93;;
17614;SDS011;8926;49.720;6.576;2023-03-01T15:06:14;15.20;;;13.77;;
17614;SDS011;8926;49.720;6.576;2023-03-01T15:08:42;13.37;;;12.30;;
17614;SDS011;8926;49.720;6.576;2023-03-01T15:11:28;14.50;;;13.10;;
17614;SDS011;8926;49.720;6.576;2023-03-01T15:13:55;11.57;;;10.57;;
17614;SDS011;8926;49.720;6.576;2023-03-01T15:16:24;15.23;;;13.83;;
17614;SDS011;8926;49.720;6.576;2023-03-01T15:18:54;10.20;;;9.40;;
17614;SDS011;8926;49.720;6.576;2023-03-01T15:21:26;13.57;;;12.33;;
17614;SDS011;8926;49.720;6.576;2023-03-01T15:26:40;11.33;;;10.33;;
17614;SDS011;8926;49.720;6.576;2023-03-01T15:29:14;12.20;;;11.10;;
17614;SDS011;8926;49.720;6.576;2023-03-01T15:31:52;9.60;;;8.83;;
17614;SDS011;8926;49.720;6.576;2023-03-01T15:36:55;12.20;;;11.03;;
17614;SDS011;8926;49.720;6.576;2023-03-01T15:39:31;13.87;;;12.47;;
17614;SDS011;8926;49.720;6.576;2023-03-01T15:42:05;14.20;;;12.70;;
17614;SDS011;8926;49.720;6.576;2023-03-01T15:44:32;12.83;;;11.53;;
17614;SDS011;8926;49.720;6.576;2023-03-01T15:47:00;12.77;;;11.57;;
17614;SDS011;8926;49.720;6.576;2023-03-01T15:49:30;12.13;;;10.83;;
17614;SDS011;8926;49.720;6.576;2023-03-01T15:52:03;13.93;;;12.50;;
17614;SDS011;8926;49.720;6.576;2023-03-01T15:54:29;10.20;;;9.40;;
17614;SDS011;8926;49.720;6.576;2023-03-01T15:56:55;10.67;;;9.77;;
17614;SDS011;8926;49.720;6.576;2023-03-01T15:59:21;10.43;;;9.43;;
17614;SDS011;8926;49.720;6.576;2023-03-01T16:01:47;9.67;;;8.70;;
17614;SDS011;8926;49.720;6.576;2023-03-01T16:04:13;10.67;;;9.67;;
17614;SDS011;8926;49.720;6.576;2023-03-01T16:06:45;11.27;;;10.30;;
17614;SDS011;8926;49.720;6.576;2023-03-01T16:09:12;9.60;;;8.80;;
17614;SDS011;8926;49.720;6.576;2023-03-01T16:11:37;8.07;;;7.47;;
17614;SDS011;8926;49.720;6.576;2023-03-01T16:14:04;8.90;;;8.10;;
17614;SDS011;8926;49.720;6.576;2023-03-01T16:16:30;7.67;;;7.07;;
17614;SDS011;8926;49.720;6.576;2023-03-01T16:18:55;6.83;;;6.23;;
17614;SDS011;8926;49.720;6.576;2023-03-01T16:21:22;7.47;;;6.97;;
17614;SDS011;8926;49.720;6.576;2023-03-01T16:23:49;6.23;;;5.73;;
17614;SDS011;8926;49.720;6.576;2023-03-01T16:26:16;7.70;;;7.03;;
17614;SDS011;8926;49.720;6.576;2023-03-01T16:28:42;8.23;;;7.40;;
17614;SDS011;8926;49.720;6.576;2023-03-01T16:31:08;7.50;;;6.90;;
17614;SDS011;8926;49.720;6.576;2023-03-01T16:33:34;6.83;;;6.23;;
17614;SDS011;8926;49.720;6.576;2023-03-01T16:36:08;7.30;;;6.60;;
17614;SDS011;8926;49.720;6.576;2023-03-01T16:38:35;6.27;;;5.77;;
17614;SDS011;8926;49.720;6.576;2023-03-01T16:41:01;6.80;;;6.10;;
17614;SDS011;8926;49.720;6.576;2023-03-01T16:43:26;7.47;;;6.77;;
17614;SDS011;8926;49.720;6.576;2023-03-01T16:45:52;5.77;;;5.27;;
17614;SDS011;8926;49.720;6.576;2023-03-01T16:48:17;7.27;;;6.67;;
17614;SDS011;8926;49.720;6.576;2023-03-01T16:50:43;5.90;;;5.50;;
17614;SDS011;8926;49.720;6.576;2023-03-01T16:53:08;6.50;;;5.83;;
17614;SDS011;8926;49.720;6.576;2023-03-01T16:55:34;5.70;;;5.20;;
17614;SDS011;8926;49.720;6.576;2023-03-01T16:58:00;6.20;;;5.70;;
17614;SDS011;8926;49.720;6.576;2023-03-01T17:00:25;6.40;;;5.87;;
17614;SDS011;8926;49.720;6.576;2023-03-01T17:02:51;6.03;;;5.53;;
17614;SDS011;8926;49.720;6.576;2023-03-01T17:05:17;5.83;;;5.33;;
17614;SDS011;8926;49.720;6.576;2023-03-01T17:07:45;6.43;;;5.83;;